sensor_id;sensor_type;location;lat;lon;timestamp;temperature;humidity
75500;DHT22;64076;51.466;7.260;2023-02-14T00:00:45;20.90;36.90
75500;DHT22;64076;51.466;7.260;2023-02-14T00:03:12;20.90;36.90
75500;DHT22;64076;51.466;7.260;2023-02-14T00:05:38;20.90;36.90
75500;DHT22;64076;51.466;7.260;2023-02-14T00:08:04;20.90;36.80
75500;DHT22;64076;51.466;7.260;2023-02-14T00:10:29;20.90;36.80
75500;DHT22;64076;51.466;7.260;2023-02-14T00:12:55;20.90;36.80
75500;DHT22;64076;51.466;7.260;2023-02-14T00:15:20;20.90;36.80
75500;DHT22;64076;51.466;7.260;2023-02-14T00:17:47;20.90;36.80
75500;DHT22;64076;51.466;7.260;2023-02-14T00:20:12;20.90;36.80
75500;DHT22;64076;51.466;7.260;2023-02-14T00:22:38;20.90;36.70
75500;DHT22;64076;51.466;7.260;2023-02-14T00:25:03;20.90;36.70
75500;DHT22;64076;51.466;7.260;2023-02-14T00:27:29;20.90;36.70
75500;DHT22;64076;51.466;7.260;2023-02-14T00:29:55;20.90;36.60
75500;DHT22;64076;51.466;7.260;2023-02-14T00:32:22;20.90;36.70
75500;DHT22;64076;51.466;7.260;2023-02-14T00:34:48;20.90;36.60
75500;DHT22;64076;51.466;7.260;2023-02-14T00:37:13;20.90;36.60
75500;DHT22;64076;51.466;7.260;2023-02-14T00:39:39;20.90;36.60
75500;DHT22;64076;51.466;7.260;2023-02-14T00:42:04;20.90;36.60
75500;DHT22;64076;51.466;7.260;2023-02-14T00:44:30;20.90;36.60
75500;DHT22;64076;51.466;7.260;2023-02-14T00:46:55;20.90;36.50
75500;DHT22;64076;51.466;7.260;2023-02-14T00:49:21;20.90;36.50
75500;DHT22;64076;51.466;7.260;2023-02-14T00:51:46;20.90;36.60
75500;DHT22;64076;51.466;7.260;2023-02-14T00:54:12;20.90;36.50
75500;DHT22;64076;51.466;7.260;2023-02-14T00:56:37;20.90;36.50
75500;DHT22;64076;51.466;7.260;2023-02-14T00:59:03;20.90;36.50
75500;DHT22;64076;51.466;7.260;2023-02-14T01:01:28;20.90;36.50
75500;DHT22;64076;51.466;7.260;2023-02-14T01:03:54;20.90;36.50
75500;DHT22;64076;51.466;7.260;2023-02-14T01:06:19;20.90;36.50
75500;DHT22;64076;51.466;7.260;2023-02-14T01:08:45;20.80;36.40
75500;DHT22;64076;51.466;7.260;2023-02-14T01:11:13;20.90;36.40
75500;DHT22;64076;51.466;7.260;2023-02-14T01:13:40;20.80;36.40
75500;DHT22;64076;51.466;7.260;2023-02-14T01:16:13;20.80;36.40
75500;DHT22;64076;51.466;7.260;2023-02-14T01:18:38;20.80;36.40
75500;DHT22;64076;51.466;7.260;2023-02-14T01:23:40;20.80;36.40
75500;DHT22;64076;51.466;7.260;2023-02-14T01:26:06;20.80;36.40
75500;DHT22;64076;51.466;7.260;2023-02-14T01:28:32;20.80;36.30
75500;DHT22;64076;51.466;7.260;2023-02-14T01:31:08;20.80;36.40
75500;DHT22;64076;51.466;7.260;2023-02-14T01:33:34;20.80;36.30
75500;DHT22;64076;51.466;7.260;2023-02-14T01:36:00;20.80;36.30
75500;DHT22;64076;51.466;7.260;2023-02-14T01:38:25;20.80;36.30
75500;DHT22;64076;51.466;7.260;2023-02-14T01:40:51;20.80;36.30
75500;DHT22;64076;51.466;7.260;2023-02-14T01:43:16;20.80;36.20
75500;DHT22;64076;51.466;7.260;2023-02-14T01:45:42;20.80;36.30
75500;DHT22;64076;51.466;7.260;2023-02-14T01:48:08;20.80;36.20
75500;DHT22;64076;51.466;7.260;2023-02-14T01:50:38;20.80;36.20
75500;DHT22;64076;51.466;7.260;2023-02-14T01:53:11;20.80;36.20
75500;DHT22;64076;51.466;7.260;2023-02-14T01:55:41;20.80;36.20
75500;DHT22;64076;51.466;7.260;2023-02-14T01:58:12;20.80;36.20
75500;DHT22;64076;51.466;7.260;2023-02-14T02:00:39;20.80;36.20
75500;DHT22;64076;51.466;7.260;2023-02-14T02:03:29;20.80;36.20
75500;DHT22;64076;51.466;7.260;2023-02-14T02:08:37;20.80;36.20
75500;DHT22;64076;51.466;7.260;2023-02-14T02:11:04;20.80;36.10
75500;DHT22;64076;51.466;7.260;2023-02-14T02:13:30;20.80;36.10
75500;DHT22;64076;51.466;7.260;2023-02-14T02:16:15;20.80;36.10
75500;DHT22;64076;51.466;7.260;2023-02-14T02:24:30;20.80;36.00
75500;DHT22;64076;51.466;7.260;2023-02-14T02:27:20;20.80;36.00
75500;DHT22;64076;51.466;7.260;2023-02-14T02:35:45;20.70;36.00
75500;DHT22;64076;51.466;7.260;2023-02-14T02:38:30;20.70;36.00
75500;DHT22;64076;51.466;7.260;2023-02-14T02:44:33;20.70;36.00
75500;DHT22;64076;51.466;7.260;2023-02-14T02:50:03;20.70;36.00
75500;DHT22;64076;51.466;7.260;2023-02-14T02:58:38;20.70;35.90
75500;DHT22;64076;51.466;7.260;2023-02-14T03:01:09;20.70;35.90
75500;DHT22;64076;51.466;7.260;2023-02-14T03:03:36;20.70;35.90
75500;DHT22;64076;51.466;7.260;2023-02-14T03:06:20;20.70;35.90
75500;DHT22;64076;51.466;7.260;2023-02-14T03:08:46;20.70;35.90
75500;DHT22;64076;51.466;7.260;2023-02-14T03:11:12;20.70;35.90
75500;DHT22;64076;51.466;7.260;2023-02-14T03:21:56;20.70;35.80
75500;DHT22;64076;51.466;7.260;2023-02-14T03:27:32;20.70;35.80
75500;DHT22;64076;51.466;7.260;2023-02-14T03:32:57;20.70;35.70
75500;DHT22;64076;51.466;7.260;2023-02-14T03:38:24;20.70;35.70
75500;DHT22;64076;51.466;7.260;2023-02-14T03:40:56;20.70;35.70
75500;DHT22;64076;51.466;7.260;2023-02-14T03:43:30;20.70;35.70
75500;DHT22;64076;51.466;7.260;2023-02-14T03:46:07;20.70;35.60
75500;DHT22;64076;51.466;7.260;2023-02-14T03:48:36;20.70;35.70
75500;DHT22;64076;51.466;7.260;2023-02-14T03:51:02;20.70;35.60
75500;DHT22;64076;51.466;7.260;2023-02-14T03:53:31;20.70;35.60
75500;DHT22;64076;51.466;7.260;2023-02-14T03:56:13;20.70;35.60
75500;DHT22;64076;51.466;7.260;2023-02-14T03:58:43;20.70;35.60
75500;DHT22;64076;51.466;7.260;2023-02-14T04:01:21;20.70;35.60
75500;DHT22;64076;51.466;7.260;2023-02-14T04:03:48;20.70;35.60
75500;DHT22;64076;51.466;7.260;2023-02-14T04:06:17;20.70;35.60
75500;DHT22;64076;51.466;7.260;2023-02-14T04:08:42;20.70;35.50
75500;DHT22;64076;51.466;7.260;2023-02-14T04:11:08;20.70;35.50
75500;DHT22;64076;51.466;7.260;2023-02-14T04:13:35;20.70;35.50
75500;DHT22;64076;51.466;7.260;2023-02-14T04:16:01;20.70;35.50
75500;DHT22;64076;51.466;7.260;2023-02-14T04:18:27;20.70;35.50
75500;DHT22;64076;51.466;7.260;2023-02-14T04:21:11;20.70;35.50
75500;DHT22;64076;51.466;7.260;2023-02-14T04:23:36;20.70;35.50
75500;DHT22;64076;51.466;7.260;2023-02-14T04:26:02;20.70;35.50
75500;DHT22;64076;51.466;7.260;2023-02-14T04:28:28;20.70;35.50
75500;DHT22;64076;51.466;7.260;2023-02-14T04:30:54;20.70;35.50
75500;DHT22;64076;51.466;7.260;2023-02-14T04:33:19;20.70;35.40
75500;DHT22;64076;51.466;7.260;2023-02-14T04:35:46;20.70;35.40
75500;DHT22;64076;51.466;7.260;2023-02-14T04:38:12;20.70;35.40
75500;DHT22;64076;51.466;7.260;2023-02-14T04:40:37;20.70;35.40
75500;DHT22;64076;51.466;7.260;2023-02-14T04:43:03;20.70;35.40
75500;DHT22;64076;51.466;7.260;2023-02-14T04:45:29;20.70;35.40
75500;DHT22;64076;51.466;7.260;2023-02-14T04:47:54;20.70;35.40
75500;DHT22;64076;51.466;7.260;2023-02-14T04:50:20;20.70;35.40
75500;DHT22;64076;51.466;7.260;2023-02-14T04:52:47;20.60;35.30
75500;DHT22;64076;51.466;7.260;2023-02-14T04:55:13;20.70;35.40
75500;DHT22;64076;51.466;7.260;2023-02-14T04:57:38;20.60;35.40
75500;DHT22;64076;51.466;7.260;2023-02-14T05:00:05;20.60;35.30
75500;DHT22;64076;51.466;7.260;2023-02-14T05:02:31;20.60;35.30
75500;DHT22;64076;51.466;7.260;2023-02-14T05:04:56;20.60;35.30
75500;DHT22;64076;51.466;7.260;2023-02-14T05:07:22;20.60;35.30
75500;DHT22;64076;51.466;7.260;2023-02-14T05:09:50;20.60;35.30
75500;DHT22;64076;51.466;7.260;2023-02-14T05:12:16;20.60;35.30
75500;DHT22;64076;51.466;7.260;2023-02-14T05:14:42;20.60;35.30
75500;DHT22;64076;51.466;7.260;2023-02-14T05:17:07;20.60;35.30
75500;DHT22;64076;51.466;7.260;2023-02-14T05:19:33;20.60;35.30
75500;DHT22;64076;51.466;7.260;2023-02-14T05:21:58;20.60;35.30
75500;DHT22;64076;51.466;7.260;2023-02-14T05:24:24;20.60;35.30
75500;DHT22;64076;51.466;7.260;2023-02-14T05:26:49;20.60;35.30
75500;DHT22;64076;51.466;7.260;2023-02-14T05:29:15;20.60;35.30
75500;DHT22;64076;51.466;7.260;2023-02-14T05:31:40;20.60;35.20
75500;DHT22;64076;51.466;7.260;2023-02-14T05:34:06;20.60;35.20
75500;DHT22;64076;51.466;7.260;2023-02-14T05:36:31;20.60;35.20
75500;DHT22;64076;51.466;7.260;2023-02-14T05:38:57;20.60;35.20
75500;DHT22;64076;51.466;7.260;2023-02-14T05:41:22;20.60;35.20
75500;DHT22;64076;51.466;7.260;2023-02-14T05:43:48;20.60;35.20
75500;DHT22;64076;51.466;7.260;2023-02-14T05:46:13;20.60;35.20
75500;DHT22;64076;51.466;7.260;2023-02-14T05:48:39;20.60;35.20
75500;DHT22;64076;51.466;7.260;2023-02-14T05:51:06;20.60;35.10
75500;DHT22;64076;51.466;7.260;2023-02-14T05:53:33;20.60;35.20
75500;DHT22;64076;51.466;7.260;2023-02-14T05:55:58;20.60;35.10
75500;DHT22;64076;51.466;7.260;2023-02-14T05:58:24;20.60;35.10
75500;DHT22;64076;51.466;7.260;2023-02-14T06:00:50;20.60;35.10
75500;DHT22;64076;51.466;7.260;2023-02-14T06:03:15;20.60;35.10
75500;DHT22;64076;51.466;7.260;2023-02-14T06:05:41;20.60;35.10
75500;DHT22;64076;51.466;7.260;2023-02-14T06:08:06;20.60;35.10
75500;DHT22;64076;51.466;7.260;2023-02-14T06:10:32;20.60;35.10
75500;DHT22;64076;51.466;7.260;2023-02-14T06:12:57;20.60;35.10
75500;DHT22;64076;51.466;7.260;2023-02-14T06:15:23;20.60;35.30
75500;DHT22;64076;51.466;7.260;2023-02-14T06:17:55;20.60;35.60
75500;DHT22;64076;51.466;7.260;2023-02-14T06:20:22;20.60;35.70
75500;DHT22;64076;51.466;7.260;2023-02-14T06:22:49;20.70;35.60
75500;DHT22;64076;51.466;7.260;2023-02-14T06:25:15;20.70;35.60
75500;DHT22;64076;51.466;7.260;2023-02-14T06:27:40;20.70;35.50
75500;DHT22;64076;51.466;7.260;2023-02-14T06:30:07;20.80;35.50
75500;DHT22;64076;51.466;7.260;2023-02-14T06:32:33;20.80;35.60
75500;DHT22;64076;51.466;7.260;2023-02-14T06:34:59;20.80;35.50
75500;DHT22;64076;51.466;7.260;2023-02-14T06:37:24;20.80;35.40
75500;DHT22;64076;51.466;7.260;2023-02-14T06:39:50;20.80;35.50
75500;DHT22;64076;51.466;7.260;2023-02-14T06:42:15;20.80;35.50
75500;DHT22;64076;51.466;7.260;2023-02-14T06:44:41;20.80;35.40
75500;DHT22;64076;51.466;7.260;2023-02-14T06:47:07;20.90;35.30
75500;DHT22;64076;51.466;7.260;2023-02-14T06:49:32;20.90;35.30
75500;DHT22;64076;51.466;7.260;2023-02-14T06:51:58;20.90;35.20
75500;DHT22;64076;51.466;7.260;2023-02-14T06:54:23;20.90;35.10
75500;DHT22;64076;51.466;7.260;2023-02-14T06:56:49;20.90;35.10
75500;DHT22;64076;51.466;7.260;2023-02-14T06:59:15;20.90;35.10
75500;DHT22;64076;51.466;7.260;2023-02-14T07:01:40;20.90;35.10
75500;DHT22;64076;51.466;7.260;2023-02-14T07:04:06;20.90;35.10
75500;DHT22;64076;51.466;7.260;2023-02-14T07:06:31;20.90;35.00
75500;DHT22;64076;51.466;7.260;2023-02-14T07:08:57;20.90;34.90
75500;DHT22;64076;51.466;7.260;2023-02-14T07:11:22;21.00;34.80
75500;DHT22;64076;51.466;7.260;2023-02-14T07:13:48;21.10;34.60
75500;DHT22;64076;51.466;7.260;2023-02-14T07:16:13;21.20;34.40
75500;DHT22;64076;51.466;7.260;2023-02-14T07:18:39;21.20;34.50
75500;DHT22;64076;51.466;7.260;2023-02-14T07:21:04;21.30;34.40
75500;DHT22;64076;51.466;7.260;2023-02-14T07:23:30;21.40;34.30
75500;DHT22;64076;51.466;7.260;2023-02-14T07:25:55;21.50;34.10
75500;DHT22;64076;51.466;7.260;2023-02-14T07:28:21;21.50;33.90
75500;DHT22;64076;51.466;7.260;2023-02-14T08:07:20;21.50;33.80
75500;DHT22;64076;51.466;7.260;2023-02-14T08:09:45;22.00;33.20
75500;DHT22;64076;51.466;7.260;2023-02-14T08:12:11;22.00;33.30
75500;DHT22;64076;51.466;7.260;2023-02-14T08:15:15;22.10;33.20
75500;DHT22;64076;51.466;7.260;2023-02-14T08:17:59;22.10;33.10
75500;DHT22;64076;51.466;7.260;2023-02-14T08:20:24;22.10;33.20
75500;DHT22;64076;51.466;7.260;2023-02-14T08:22:50;22.10;33.20
75500;DHT22;64076;51.466;7.260;2023-02-14T08:25:16;22.20;33.20
75500;DHT22;64076;51.466;7.260;2023-02-14T08:27:41;22.20;33.20
75500;DHT22;64076;51.466;7.260;2023-02-14T08:30:07;22.20;33.10
75500;DHT22;64076;51.466;7.260;2023-02-14T08:32:33;22.20;33.10
75500;DHT22;64076;51.466;7.260;2023-02-14T08:34:58;22.30;33.10
75500;DHT22;64076;51.466;7.260;2023-02-14T08:37:24;22.30;33.10
75500;DHT22;64076;51.466;7.260;2023-02-14T08:39:50;22.30;33.10
75500;DHT22;64076;51.466;7.260;2023-02-14T08:42:15;22.30;33.10
75500;DHT22;64076;51.466;7.260;2023-02-14T08:44:41;22.30;33.10
75500;DHT22;64076;51.466;7.260;2023-02-14T08:47:06;22.30;33.10
75500;DHT22;64076;51.466;7.260;2023-02-14T08:49:31;22.40;33.10
75500;DHT22;64076;51.466;7.260;2023-02-14T08:51:57;22.40;33.10
75500;DHT22;64076;51.466;7.260;2023-02-14T08:54:23;22.40;33.10
75500;DHT22;64076;51.466;7.260;2023-02-14T08:56:48;22.40;33.10
75500;DHT22;64076;51.466;7.260;2023-02-14T08:59:14;22.40;33.20
75500;DHT22;64076;51.466;7.260;2023-02-14T09:01:39;22.40;33.20
75500;DHT22;64076;51.466;7.260;2023-02-14T09:04:05;22.40;33.20
75500;DHT22;64076;51.466;7.260;2023-02-14T09:06:30;22.40;33.20
75500;DHT22;64076;51.466;7.260;2023-02-14T09:08:56;22.40;33.20
75500;DHT22;64076;51.466;7.260;2023-02-14T09:11:23;22.40;33.20
75500;DHT22;64076;51.466;7.260;2023-02-14T09:13:50;22.50;33.30
75500;DHT22;64076;51.466;7.260;2023-02-14T09:16:17;22.50;33.40
75500;DHT22;64076;51.466;7.260;2023-02-14T09:18:44;22.50;33.30
75500;DHT22;64076;51.466;7.260;2023-02-14T09:21:13;22.50;33.40
75500;DHT22;64076;51.466;7.260;2023-02-14T09:23:38;22.50;33.40
75500;DHT22;64076;51.466;7.260;2023-02-14T09:26:06;22.50;33.40
75500;DHT22;64076;51.466;7.260;2023-02-14T09:28:33;22.50;33.40
75500;DHT22;64076;51.466;7.260;2023-02-14T09:31:11;22.50;33.50
75500;DHT22;64076;51.466;7.260;2023-02-14T09:33:37;22.50;33.50
75500;DHT22;64076;51.466;7.260;2023-02-14T09:36:21;22.50;33.50
75500;DHT22;64076;51.466;7.260;2023-02-14T09:38:46;22.50;33.50
75500;DHT22;64076;51.466;7.260;2023-02-14T09:46:23;22.50;33.40
75500;DHT22;64076;51.466;7.260;2023-02-14T09:48:51;22.50;33.50
75500;DHT22;64076;51.466;7.260;2023-02-14T09:51:20;22.50;33.50
75500;DHT22;64076;51.466;7.260;2023-02-14T09:54:04;22.50;33.50
75500;DHT22;64076;51.466;7.260;2023-02-14T09:56:52;22.50;33.50
75500;DHT22;64076;51.466;7.260;2023-02-14T09:59:29;22.50;33.50
75500;DHT22;64076;51.466;7.260;2023-02-14T10:04:38;22.50;33.70
75500;DHT22;64076;51.466;7.260;2023-02-14T10:07:16;22.50;33.70
75500;DHT22;64076;51.466;7.260;2023-02-14T10:10:09;22.50;33.70
75500;DHT22;64076;51.466;7.260;2023-02-14T10:12:41;22.50;33.70
75500;DHT22;64076;51.466;7.260;2023-02-14T10:15:19;22.50;33.80
75500;DHT22;64076;51.466;7.260;2023-02-14T10:17:52;22.50;33.70
75500;DHT22;64076;51.466;7.260;2023-02-14T10:20:28;22.50;33.70
75500;DHT22;64076;51.466;7.260;2023-02-14T10:28:30;22.40;33.70
75500;DHT22;64076;51.466;7.260;2023-02-14T10:31:25;22.40;33.70
75500;DHT22;64076;51.466;7.260;2023-02-14T10:33:58;22.40;33.70
75500;DHT22;64076;51.466;7.260;2023-02-14T10:36:55;22.40;33.70
75500;DHT22;64076;51.466;7.260;2023-02-14T10:42:03;22.40;33.70
75500;DHT22;64076;51.466;7.260;2023-02-14T10:44:46;22.40;33.60
75500;DHT22;64076;51.466;7.260;2023-02-14T10:47:26;22.40;33.60
75500;DHT22;64076;51.466;7.260;2023-02-14T10:50:10;22.40;33.60
75500;DHT22;64076;51.466;7.260;2023-02-14T10:52:47;22.40;33.60
75500;DHT22;64076;51.466;7.260;2023-02-14T10:55:21;22.40;33.70
75500;DHT22;64076;51.466;7.260;2023-02-14T10:57:52;22.40;33.70
75500;DHT22;64076;51.466;7.260;2023-02-14T11:00:29;22.40;33.70
75500;DHT22;64076;51.466;7.260;2023-02-14T11:03:00;22.40;33.70
75500;DHT22;64076;51.466;7.260;2023-02-14T11:05:38;22.40;33.70
75500;DHT22;64076;51.466;7.260;2023-02-14T11:08:30;22.40;33.70
75500;DHT22;64076;51.466;7.260;2023-02-14T11:13:42;22.40;33.80
75500;DHT22;64076;51.466;7.260;2023-02-14T11:16:10;22.40;33.80
75500;DHT22;64076;51.466;7.260;2023-02-14T11:18:38;22.40;33.80
75500;DHT22;64076;51.466;7.260;2023-02-14T11:21:10;22.40;33.90
75500;DHT22;64076;51.466;7.260;2023-02-14T11:23:42;22.40;33.90
75500;DHT22;64076;51.466;7.260;2023-02-14T11:26:29;22.40;33.90
75500;DHT22;64076;51.466;7.260;2023-02-14T11:28:59;22.40;33.90
75500;DHT22;64076;51.466;7.260;2023-02-14T11:31:34;22.40;34.00
75500;DHT22;64076;51.466;7.260;2023-02-14T11:34:02;22.40;34.00
75500;DHT22;64076;51.466;7.260;2023-02-14T11:36:29;22.40;34.00
75500;DHT22;64076;51.466;7.260;2023-02-14T11:39:15;22.40;34.00
75500;DHT22;64076;51.466;7.260;2023-02-14T11:41:49;22.40;33.90
75500;DHT22;64076;51.466;7.260;2023-02-14T11:44:18;22.40;34.00
75500;DHT22;64076;51.466;7.260;2023-02-14T11:46:47;22.40;34.00
75500;DHT22;64076;51.466;7.260;2023-02-14T11:49:31;22.40;34.00
75500;DHT22;64076;51.466;7.260;2023-02-14T11:52:00;22.40;34.00
75500;DHT22;64076;51.466;7.260;2023-02-14T11:54:39;22.40;34.00
75500;DHT22;64076;51.466;7.260;2023-02-14T11:57:10;22.40;34.00
75500;DHT22;64076;51.466;7.260;2023-02-14T11:59:47;22.40;34.00
75500;DHT22;64076;51.466;7.260;2023-02-14T12:02:37;22.40;34.00
75500;DHT22;64076;51.466;7.260;2023-02-14T12:05:20;22.40;34.00
75500;DHT22;64076;51.466;7.260;2023-02-14T12:07:49;22.40;34.00
75500;DHT22;64076;51.466;7.260;2023-02-14T12:10:21;22.40;34.00
75500;DHT22;64076;51.466;7.260;2023-02-14T12:13:00;22.40;34.00
75500;DHT22;64076;51.466;7.260;2023-02-14T12:20:59;22.40;34.00
75500;DHT22;64076;51.466;7.260;2023-02-14T12:23:41;22.40;34.10
75500;DHT22;64076;51.466;7.260;2023-02-14T12:27:05;22.40;34.10
75500;DHT22;64076;51.466;7.260;2023-02-14T12:29:56;22.30;34.10
75500;DHT22;64076;51.466;7.260;2023-02-14T12:32:28;22.30;34.20
75500;DHT22;64076;51.466;7.260;2023-02-14T12:35:17;22.30;34.20
75500;DHT22;64076;51.466;7.260;2023-02-14T12:37:58;22.20;34.20
75500;DHT22;64076;51.466;7.260;2023-02-14T12:40:46;22.20;34.20
75500;DHT22;64076;51.466;7.260;2023-02-14T12:43:43;22.20;34.20
75500;DHT22;64076;51.466;7.260;2023-02-14T12:49:48;22.20;34.30
75500;DHT22;64076;51.466;7.260;2023-02-14T12:52:55;22.20;34.30
75500;DHT22;64076;51.466;7.260;2023-02-14T12:58:02;22.20;34.20
75500;DHT22;64076;51.466;7.260;2023-02-14T13:16:54;22.20;34.40
75500;DHT22;64076;51.466;7.260;2023-02-14T13:24:26;22.20;34.50
75500;DHT22;64076;51.466;7.260;2023-02-14T13:36:46;22.10;34.50
75500;DHT22;64076;51.466;7.260;2023-02-14T13:39:20;22.10;34.60
75500;DHT22;64076;51.466;7.260;2023-02-14T13:41:47;22.10;34.60
75500;DHT22;64076;51.466;7.260;2023-02-14T13:46:59;22.10;34.60
75500;DHT22;64076;51.466;7.260;2023-02-14T13:49:26;22.10;34.60
75500;DHT22;64076;51.466;7.260;2023-02-14T13:51:58;22.10;34.70
75500;DHT22;64076;51.466;7.260;2023-02-14T13:54:43;22.10;34.60
75500;DHT22;64076;51.466;7.260;2023-02-14T13:57:29;22.10;34.70
75500;DHT22;64076;51.466;7.260;2023-02-14T14:02:50;22.10;34.70
75500;DHT22;64076;51.466;7.260;2023-02-14T14:10:49;22.00;34.90
75500;DHT22;64076;51.466;7.260;2023-02-14T14:19:03;22.00;34.90
75500;DHT22;64076;51.466;7.260;2023-02-14T14:21:36;22.00;34.90
75500;DHT22;64076;51.466;7.260;2023-02-14T14:24:26;22.00;34.90
75500;DHT22;64076;51.466;7.260;2023-02-14T14:29:25;22.00;34.90
75500;DHT22;64076;51.466;7.260;2023-02-14T14:31:54;22.00;34.90
75500;DHT22;64076;51.466;7.260;2023-02-14T14:34:23;22.00;34.90
75500;DHT22;64076;51.466;7.260;2023-02-14T14:37:03;22.00;34.90
75500;DHT22;64076;51.466;7.260;2023-02-14T14:39:31;22.00;34.90
75500;DHT22;64076;51.466;7.260;2023-02-14T14:42:08;22.00;34.90
75500;DHT22;64076;51.466;7.260;2023-02-14T14:44:44;22.00;34.90
75500;DHT22;64076;51.466;7.260;2023-02-14T14:47:16;22.00;34.90
75500;DHT22;64076;51.466;7.260;2023-02-14T14:49:43;22.00;34.90
75500;DHT22;64076;51.466;7.260;2023-02-14T14:52:34;22.00;34.90
75500;DHT22;64076;51.466;7.260;2023-02-14T14:55:01;22.00;34.90
75500;DHT22;64076;51.466;7.260;2023-02-14T14:57:28;22.00;34.80
75500;DHT22;64076;51.466;7.260;2023-02-14T15:02:33;22.00;34.80
75500;DHT22;64076;51.466;7.260;2023-02-14T15:05:33;22.00;34.90
75500;DHT22;64076;51.466;7.260;2023-02-14T15:10:54;22.00;34.90
75500;DHT22;64076;51.466;7.260;2023-02-14T15:13:43;22.00;34.90
75500;DHT22;64076;51.466;7.260;2023-02-14T15:16:17;22.00;34.90
75500;DHT22;64076;51.466;7.260;2023-02-14T15:18:43;21.90;34.90
75500;DHT22;64076;51.466;7.260;2023-02-14T15:21:09;22.00;34.90
75500;DHT22;64076;51.466;7.260;2023-02-14T15:23:35;22.00;34.90
75500;DHT22;64076;51.466;7.260;2023-02-14T15:26:01;22.00;34.90
75500;DHT22;64076;51.466;7.260;2023-02-14T15:28:33;22.00;34.90
75500;DHT22;64076;51.466;7.260;2023-02-14T15:31:01;22.00;34.90
75500;DHT22;64076;51.466;7.260;2023-02-14T15:33:28;22.00;34.80
75500;DHT22;64076;51.466;7.260;2023-02-14T15:35:56;21.90;34.80
75500;DHT22;64076;51.466;7.260;2023-02-14T15:38:23;21.90;34.80
75500;DHT22;64076;51.466;7.260;2023-02-14T15:40:51;21.90;34.80
75500;DHT22;64076;51.466;7.260;2023-02-14T15:58:32;22.00;34.80
75500;DHT22;64076;51.466;7.260;2023-02-14T16:00:59;21.90;34.80
75500;DHT22;64076;51.466;7.260;2023-02-14T16:03:29;21.90;34.80
75500;DHT22;64076;51.466;7.260;2023-02-14T16:05:57;21.90;34.80
75500;DHT22;64076;51.466;7.260;2023-02-14T16:08:36;21.90;34.80
75500;DHT22;64076;51.466;7.260;2023-02-14T16:15:58;21.90;34.70
75500;DHT22;64076;51.466;7.260;2023-02-14T16:21:09;21.80;34.80
75500;DHT22;64076;51.466;7.260;2023-02-14T16:23:35;21.80;34.70
75500;DHT22;64076;51.466;7.260;2023-02-14T16:26:04;21.80;34.70
75500;DHT22;64076;51.466;7.260;2023-02-14T16:28:31;21.80;34.70
75500;DHT22;64076;51.466;7.260;2023-02-14T16:30:58;21.80;34.70
75500;DHT22;64076;51.466;7.260;2023-02-14T16:33:27;21.80;34.70
75500;DHT22;64076;51.466;7.260;2023-02-14T16:35:53;21.80;34.70
75500;DHT22;64076;51.466;7.260;2023-02-14T16:38:19;21.80;34.70
75500;DHT22;64076;51.466;7.260;2023-02-14T16:40:49;21.80;34.70
75500;DHT22;64076;51.466;7.260;2023-02-14T16:43:18;21.80;34.80
75500;DHT22;64076;51.466;7.260;2023-02-14T16:45:44;21.80;34.70
75500;DHT22;64076;51.466;7.260;2023-02-14T16:48:10;21.80;34.70
75500;DHT22;64076;51.466;7.260;2023-02-14T16:50:37;21.80;34.70
75500;DHT22;64076;51.466;7.260;2023-02-14T16:53:10;21.80;34.70
75500;DHT22;64076;51.466;7.260;2023-02-14T16:55:36;21.70;34.70
75500;DHT22;64076;51.466;7.260;2023-02-14T16:58:02;21.80;34.70
75500;DHT22;64076;51.466;7.260;2023-02-14T17:00:28;21.80;34.70
75500;DHT22;64076;51.466;7.260;2023-02-14T17:05:22;21.70;34.70
75500;DHT22;64076;51.466;7.260;2023-02-14T17:07:48;21.70;34.70
75500;DHT22;64076;51.466;7.260;2023-02-14T17:10:17;21.70;34.70
75500;DHT22;64076;51.466;7.260;2023-02-14T17:12:44;21.70;34.70
75500;DHT22;64076;51.466;7.260;2023-02-14T17:15:15;21.70;34.70
75500;DHT22;64076;51.466;7.260;2023-02-14T17:17:42;21.70;34.70
75500;DHT22;64076;51.466;7.260;2023-02-14T17:20:09;21.70;34.70
75500;DHT22;64076;51.466;7.260;2023-02-14T17:22:36;21.70;34.70
75500;DHT22;64076;51.466;7.260;2023-02-14T17:25:02;21.70;34.70
75500;DHT22;64076;51.466;7.260;2023-02-14T17:27:28;21.60;34.80
75500;DHT22;64076;51.466;7.260;2023-02-14T17:29:53;21.60;34.80
75500;DHT22;64076;51.466;7.260;2023-02-14T17:32:19;21.70;34.80
75500;DHT22;64076;51.466;7.260;2023-02-14T17:34:44;21.60;34.80
75500;DHT22;64076;51.466;7.260;2023-02-14T17:37:10;21.60;34.80
75500;DHT22;64076;51.466;7.260;2023-02-14T17:39:36;21.60;34.80
75500;DHT22;64076;51.466;7.260;2023-02-14T17:42:01;21.60;34.80
75500;DHT22;64076;51.466;7.260;2023-02-14T17:44:27;21.60;34.90
75500;DHT22;64076;51.466;7.260;2023-02-14T17:46:56;21.60;34.90
75500;DHT22;64076;51.466;7.260;2023-02-14T17:49:22;21.60;34.90
75500;DHT22;64076;51.466;7.260;2023-02-14T17:51:47;21.60;34.90
75500;DHT22;64076;51.466;7.260;2023-02-14T17:54:16;21.60;34.90
75500;DHT22;64076;51.466;7.260;2023-02-14T17:56:41;21.60;34.90
75500;DHT22;64076;51.466;7.260;2023-02-14T17:59:07;21.60;35.00
75500;DHT22;64076;51.466;7.260;2023-02-14T18:01:33;21.60;35.00
75500;DHT22;64076;51.466;7.260;2023-02-14T18:04:00;21.50;35.00
75500;DHT22;64076;51.466;7.260;2023-02-14T18:06:26;21.60;35.10
75500;DHT22;64076;51.466;7.260;2023-02-14T18:08:52;21.50;35.00
75500;DHT22;64076;51.466;7.260;2023-02-14T18:11:22;21.50;35.00
75500;DHT22;64076;51.466;7.260;2023-02-14T18:13:48;21.50;35.10
75500;DHT22;64076;51.466;7.260;2023-02-14T18:16:16;21.50;35.00
75500;DHT22;64076;51.466;7.260;2023-02-14T18:18:43;21.50;35.10
75500;DHT22;64076;51.466;7.260;2023-02-14T18:21:10;21.50;35.00
75500;DHT22;64076;51.466;7.260;2023-02-14T18:23:36;21.50;35.10
75500;DHT22;64076;51.466;7.260;2023-02-14T18:26:04;21.50;35.10
75500;DHT22;64076;51.466;7.260;2023-02-14T18:28:31;21.50;35.10
75500;DHT22;64076;51.466;7.260;2023-02-14T18:31:05;21.50;35.10
75500;DHT22;64076;51.466;7.260;2023-02-14T18:33:32;21.50;35.10
75500;DHT22;64076;51.466;7.260;2023-02-14T18:36:01;21.50;35.10
75500;DHT22;64076;51.466;7.260;2023-02-14T18:38:27;21.50;35.10
75500;DHT22;64076;51.466;7.260;2023-02-14T18:40:52;21.50;35.10
75500;DHT22;64076;51.466;7.260;2023-02-14T18:43:18;21.50;35.20
75500;DHT22;64076;51.466;7.260;2023-02-14T18:45:43;21.50;35.10
75500;DHT22;64076;51.466;7.260;2023-02-14T18:48:09;21.50;35.20
75500;DHT22;64076;51.466;7.260;2023-02-14T18:50:34;21.50;35.20
75500;DHT22;64076;51.466;7.260;2023-02-14T18:53:00;21.50;35.20
75500;DHT22;64076;51.466;7.260;2023-02-14T18:55:26;21.50;35.20
75500;DHT22;64076;51.466;7.260;2023-02-14T18:57:52;21.50;35.20
75500;DHT22;64076;51.466;7.260;2023-02-14T19:00:17;21.50;35.20